Meteo Giornale » Osservazioni meteo Brasile » Presidente Prudente
ore: 03:00 - Osservazioni Meteo Presidente Prudente
Lat. 22° 7' S Lon. 51° 23' W Alt. 436 metri s.l.m.
21 °C
Temporale
Temp. 24 Ore
21 °C
35 °C
Ovest/Sud-Ovest
22.2 Km/h
Dew point 19 °C
Umidità 88 %
Visibilità 5 Km
Il sole sorge alle ore 06:35
Il sole tramonta alle ore 18:15
| Data e Ora | Cielo e Fenomeni | T °C | DP °C | Um. % | Pres. hPa | Vis. km | Vento km/h | |
|---|---|---|---|---|---|---|---|---|
| Oggi h: 03:00 | Temporale | 21 | 19 | 88 | 1011 | 5 | O/SO 22.2 | |
| Oggi h: 02:00 | Nuvoloso | 21 | 19 | 88 | 1011 | 10 | SO 22.2 | |
| Oggi h: 01:00 | Nuvoloso | 22 | 19 | 83 | 1012 | 10 | SO 18.5 | |
| Oggi h: 00:00 | Poco Nuvoloso | 23 | 19 | 78 | 1012 | 10 | S/SO 29.6 | |
| Ieri h: 23:00 | Sereno | 27 | 18 | 57 | 1010 | 10 | O/SO 7.4 | |
| Ieri h: 22:00 | Sereno | 28 | 18 | 54 | 1007 | 10 | N 7.4 | |
| Ieri h: 21:00 | Sereno | 28 | 18 | 54 | 1007 | 10 | N 3.7 | |
| Ieri h: 20:00 | Sereno | 28 | 17 | 51 | 1006 | 10 | N 5.5 | |
| Ieri h: 19:00 | Sereno | 27 | 17 | 54 | 1006 | 10 | E/NE 9.3 | |
| Ieri h: 18:00 | Nuvoloso | 28 | 17 | 51 | 1007 | 9 | N/NE 24 | |
| Ieri h: 17:00 | Sereno | 35 | 18 | 36 | 1006 | 9 | NO 13 | |
| Ieri h: 16:00 | Sereno | 26 | 17 | 57 | 1006 | 10 | O 22.2 | |
| Ieri h: 15:00 | Sereno | 35 | 20 | 41 | 1008 | 10 | NO 13 | |
| Ieri h: 14:00 | Sereno | 34 | 20 | 43 | 1009 | 10 | N 14.8 | |
| Ieri h: 13:00 | Sereno | 33 | 20 | 46 | 1009 | 10 | N 13 | |
| Ieri h: 12:00 | Sereno | 31 | 20 | 52 | 1010 | 10 | N/NE 16.7 | |
| Ieri h: 11:00 | Sereno | 30 | 20 | 55 | 1011 | 10 | NE 20.3 | |
| Ieri h: 10:00 | Sereno | 28 | 19 | 58 | 1011 | 10 | E/NE 22.2 | |
| Ieri h: 09:00 | Sereno | 26 | 19 | 65 | 1011 | 10 | NE 18.5 | |
| Ieri h: 08:00 | Sereno | 23 | 18 | 73 | 1011 | 10 | NE 18.5 | |
| Ieri h: 07:00 | Sereno | 21 | 19 | 88 | 1011 | 10 | E/NE 11.1 | |
| Ieri h: 06:00 | Sereno | 21 | 19 | 88 | 1011 | 10 | E 9.3 | |
| Ieri h: 05:00 | Sereno | 21 | 19 | 88 | 1011 | 10 | E/NE 13 | |
| Ieri h: 04:00 | Sereno | 22 | 19 | 83 | 1011 | 10 | E 14.8 | |



